Time;durP1;ratioP1;P1;durP2;ratioP2;P2;SDS_P1;SDS_P2;PMS_P1;PMS_P2;Temp;Humidity;BMP_temperature;BMP_pressure;BME280_temperature;BME280_humidity;BME280_pressure;Samples;Min_cycle;Max_cycle;Signal;HPM_P1;HPM_P2
2021/12/16 00:01:41;;;;;;;21.33;8.73;;;;;;;;;;5012300;28;20569;-70
2021/12/16 00:04:30;;;;;;;17.10;8.73;;;;;;;;;;5031956;28;20041;-71
2021/12/16 00:09:45;;;;;;;19.17;8.20;;;;;;;;;;5013508;28;20132;-70
2021/12/16 00:29:14;;;;;;;23.23;8.77;;;;;;;;;;5024916;28;20422;-70
2021/12/16 00:31:53;;;;;;;23.05;8.98;;;;;;;;;;5019399;28;20046;-70
2021/12/16 00:34:26;;;;;;;20.92;8.98;;;;;;;;;;5022031;28;20077;-70
2021/12/16 00:36:55;;;;;;;22.88;9.27;;;;;;;;;;5011546;28;20489;-70
2021/12/16 00:39:25;;;;;;;21.55;8.93;;;;;;;;;;5028135;28;20148;-70
2021/12/16 00:41:59;;;;;;;27.42;9.32;;;;;;;;;;5026539;28;20144;-70
2021/12/16 00:45:01;;;;;;;19.30;8.75;;;;;;;;;;5035081;28;20092;-70
2021/12/16 00:47:32;;;;;;;23.90;9.13;;;;;;;;;;5016756;28;20077;-70
2021/12/16 00:50:20;;;;;;;25.13;9.73;;;;;;;;;;5023846;28;20049;-71
2021/12/16 00:55:44;;;;;;;24.35;9.85;;;;;;;;;;5020738;28;20042;-70
2021/12/16 00:58:13;;;;;;;21.27;9.20;;;;;;;;;;5026125;28;20452;-70
2021/12/16 01:00:43;;;;;;;23.08;9.20;;;;;;;;;;5023297;28;20050;-70
2021/12/16 01:03:21;;;;;;;23.15;8.98;;;;;;;;;;5032415;28;20049;-70
2021/12/16 01:06:34;;;;;;;17.80;8.73;;;;;;;;;;5027182;28;20057;-71
2021/12/16 01:34:17;;;;;;;23.95;9.77;;;;;;;;;;5015869;28;20687;-70
2021/12/16 01:37:11;;;;;;;21.30;8.55;;;;;;;;;;5032170;28;20065;-70
2021/12/16 01:40:07;;;;;;;20.10;8.57;;;;;;;;;;5011723;28;20140;-70
2021/12/16 01:45:27;;;;;;;24.25;9.45;;;;;;;;;;5010510;28;20145;-70
2021/12/16 01:45:46;;;;;;;22.67;9.15;;;;;;;;;;5021174;28;20124;-70
2021/12/16 01:51:18;;;;;;;22.95;8.85;;;;;;;;;;5001017;28;20045;-70
2021/12/16 01:56:47;;;;;;;24.13;9.48;;;;;;;;;;5022829;28;20128;-70
2021/12/16 01:59:20;;;;;;;25.33;10.00;;;;;;;;;;5014037;28;20084;-70
2021/12/16 02:01:48;;;;;;;21.42;8.77;;;;;;;;;;5016500;28;20137;-71
2021/12/16 02:04:24;;;;;;;26.00;9.32;;;;;;;;;;5017847;28;20072;-70
2021/12/16 02:07:06;;;;;;;25.20;8.95;;;;;;;;;;5024793;28;20080;-70
2021/12/16 02:09:38;;;;;;;28.27;9.98;;;;;;;;;;5010143;28;20054;-70
2021/12/16 02:12:17;;;;;;;26.88;9.82;;;;;;;;;;5016020;28;20064;-70
2021/12/16 02:28:48;;;;;;;23.88;9.25;;;;;;;;;;5018354;28;20128;-70
2021/12/16 02:31:33;;;;;;;26.23;10.10;;;;;;;;;;5025137;28;20128;-70
2021/12/16 02:36:53;;;;;;;27.65;10.27;;;;;;;;;;5014276;28;20046;-70
2021/12/16 02:39:24;;;;;;;27.17;10.23;;;;;;;;;;5021150;28;20482;-70
2021/12/16 02:41:55;;;;;;;29.55;10.27;;;;;;;;;;5013097;28;20133;-70
2021/12/16 02:44:40;;;;;;;25.33;9.73;;;;;;;;;;5017248;28;20077;-70
2021/12/16 02:49:56;;;;;;;26.73;9.55;;;;;;;;;;5025887;28;20168;-70
2021/12/16 02:52:26;;;;;;;25.83;10.13;;;;;;;;;;5025683;28;20154;-70
2021/12/16 02:54:55;;;;;;;27.10;10.45;;;;;;;;;;5028720;28;20042;-70
2021/12/16 02:57:25;;;;;;;24.75;9.00;;;;;;;;;;5024080;28;20047;-70
2021/12/16 02:59:53;;;;;;;24.17;9.45;;;;;;;;;;5030288;28;20133;-70
2021/12/16 03:02:25;;;;;;;27.95;10.57;;;;;;;;;;5030709;28;20539;-70
2021/12/16 03:04:55;;;;;;;27.30;10.82;;;;;;;;;;5024020;28;20117;-70
2021/12/16 03:07:24;;;;;;;28.52;10.80;;;;;;;;;;5024708;28;20136;-70
2021/12/16 03:12:57;;;;;;;25.05;9.27;;;;;;;;;;5027211;28;20128;-71
2021/12/16 03:18:18;;;;;;;29.13;10.63;;;;;;;;;;5020723;28;20042;-70
2021/12/16 03:20:51;;;;;;;28.13;11.23;;;;;;;;;;5018320;28;20041;-70
2021/12/16 03:23:33;;;;;;;26.98;10.13;;;;;;;;;;5015663;28;20453;-70
2021/12/16 03:26:36;;;;;;;25.58;10.23;;;;;;;;;;4995122;28;20565;-70
2021/12/16 03:29:27;;;;;;;27.48;10.50;;;;;;;;;;5000681;28;20529;-70
2021/12/16 03:32:30;;;;;;;22.92;8.37;;;;;;;;;;3481767;28;10021606;-70
2021/12/16 03:35:02;;;;;;;32.85;11.77;;;;;;;;;;3281717;28;10002338;-71
2021/12/16 03:37:31;;;;;;;32.60;11.27;;;;;;;;;;5000911;28;20552;-70
2021/12/16 03:40:00;;;;;;;29.63;11.68;;;;;;;;;;5003041;28;20427;-70
2021/12/16 03:42:31;;;;;;;35.30;13.88;;;;;;;;;;4997666;28;20124;-70
2021/12/16 03:45:06;;;;;;;35.40;12.93;;;;;;;;;;5011076;28;20154;-70
2021/12/16 03:47:37;;;;;;;34.13;13.53;;;;;;;;;;4998275;28;20129;-70
2021/12/16 03:50:08;;;;;;;35.92;14.18;;;;;;;;;;4997580;28;20144;-70
2021/12/16 03:52:37;;;;;;;35.45;13.80;;;;;;;;;;4996457;28;20406;-71
2021/12/16 03:55:07;;;;;;;32.38;13.02;;;;;;;;;;5009082;28;20081;-71
2021/12/16 03:57:37;;;;;;;27.30;11.98;;;;;;;;;;5002688;28;20046;-71
2021/12/16 04:00:07;;;;;;;28.23;12.52;;;;;;;;;;5003858;28;20136;-71
2021/12/16 04:02:36;;;;;;;26.45;10.63;;;;;;;;;;5000200;28;20090;-70
2021/12/16 04:05:06;;;;;;;32.35;12.80;;;;;;;;;;5005198;28;20081;-71
2021/12/16 04:07:37;;;;;;;29.80;11.70;;;;;;;;;;4992637;28;20133;-71
2021/12/16 04:10:07;;;;;;;29.90;11.60;;;;;;;;;;4996418;28;20133;-70
2021/12/16 04:12:37;;;;;;;25.27;10.20;;;;;;;;;;5003986;28;20046;-70
2021/12/16 04:15:08;;;;;;;25.35;9.65;;;;;;;;;;5004341;28;20056;-70
2021/12/16 04:17:36;;;;;;;31.80;11.15;;;;;;;;;;4993143;28;20134;-71
2021/12/16 04:20:06;;;;;;;28.30;10.82;;;;;;;;;;5002350;28;20050;-70
2021/12/16 04:22:38;;;;;;;29.63;11.52;;;;;;;;;;4998526;28;20140;-71
2021/12/16 04:25:11;;;;;;;30.65;10.88;;;;;;;;;;5027407;28;20115;-71
2021/12/16 04:27:43;;;;;;;25.23;8.70;;;;;;;;;;5021015;28;20125;-70
2021/12/16 04:30:12;;;;;;;25.38;9.35;;;;;;;;;;5017912;28;20511;-70
2021/12/16 04:32:41;;;;;;;21.92;8.43;;;;;;;;;;5014101;28;20128;-70
2021/12/16 04:35:09;;;;;;;23.88;9.32;;;;;;;;;;5024000;28;20059;-70
2021/12/16 04:37:38;;;;;;;20.42;7.53;;;;;;;;;;5027802;28;20048;-70
2021/12/16 04:40:08;;;;;;;22.10;9.27;;;;;;;;;;5020045;28;20129;-70
2021/12/16 04:42:37;;;;;;;25.08;9.88;;;;;;;;;;5016842;28;20179;-70
2021/12/16 04:45:08;;;;;;;22.30;8.57;;;;;;;;;;5013832;28;20050;-70
2021/12/16 04:47:38;;;;;;;24.55;8.10;;;;;;;;;;5013750;28;20132;-70
2021/12/16 04:50:07;;;;;;;22.85;8.40;;;;;;;;;;5027018;28;20060;-70
2021/12/16 04:52:35;;;;;;;20.02;7.85;;;;;;;;;;5029234;28;20064;-71
2021/12/16 04:55:04;;;;;;;22.17;8.63;;;;;;;;;;5015848;28;20081;-70
2021/12/16 04:57:32;;;;;;;22.45;8.57;;;;;;;;;;5022168;28;20085;-70
2021/12/16 05:00:00;;;;;;;24.65;7.10;;;;;;;;;;5023366;28;20045;-70
2021/12/16 05:02:30;;;;;;;21.83;8.00;;;;;;;;;;5026569;28;20045;-71
2021/12/16 05:04:58;;;;;;;21.58;8.00;;;;;;;;;;5016574;28;20104;-71
2021/12/16 05:07:27;;;;;;;21.95;7.05;;;;;;;;;;5014359;28;20132;-70
2021/12/16 05:10:06;;;;;;;25.15;7.15;;;;;;;;;;5019347;28;20149;-71
2021/12/16 05:12:37;;;;;;;18.83;6.60;;;;;;;;;;5019459;28;20136;-71
2021/12/16 05:15:08;;;;;;;15.80;5.93;;;;;;;;;;5020847;28;20509;-71
2021/12/16 05:17:42;;;;;;;19.40;6.55;;;;;;;;;;5013059;28;20064;-70
2021/12/16 05:20:12;;;;;;;18.93;6.33;;;;;;;;;;5021369;28;20177;-70
2021/12/16 05:25:38;;;;;;;17.05;5.72;;;;;;;;;;5018784;28;20482;-71
2021/12/16 05:28:07;;;;;;;17.90;6.57;;;;;;;;;;5017387;28;20120;-70
2021/12/16 05:30:36;;;;;;;19.67;6.10;;;;;;;;;;5013081;28;20056;-70
2021/12/16 05:33:06;;;;;;;17.55;6.32;;;;;;;;;;5016922;28;20100;-70
2021/12/16 05:35:35;;;;;;;11.98;5.15;;;;;;;;;;5031137;28;20053;-70
2021/12/16 05:38:04;;;;;;;11.75;4.60;;;;;;;;;;5027156;28;20065;-70
2021/12/16 05:40:32;;;;;;;12.68;4.70;;;;;;;;;;5012669;28;20057;-70
2021/12/16 05:43:02;;;;;;;12.50;4.60;;;;;;;;;;5009967;28;20052;-70
2021/12/16 05:45:31;;;;;;;15.07;5.85;;;;;;;;;;5017246;28;20445;-70
2021/12/16 05:48:00;;;;;;;12.68;5.18;;;;;;;;;;5012395;28;20064;-70
2021/12/16 05:50:31;;;;;;;14.27;5.50;;;;;;;;;;5010868;28;20593;-70
2021/12/16 05:52:59;;;;;;;16.30;5.53;;;;;;;;;;5016233;28;20046;-70
2021/12/16 05:55:29;;;;;;;12.80;4.68;;;;;;;;;;5013754;28;20505;-70
2021/12/16 05:57:57;;;;;;;18.05;5.95;;;;;;;;;;5014208;28;20494;-70
2021/12/16 06:00:28;;;;;;;17.40;5.85;;;;;;;;;;5012291;28;20045;-70
2021/12/16 06:02:56;;;;;;;16.85;6.13;;;;;;;;;;5011885;28;20593;-70
2021/12/16 06:05:25;;;;;;;16.40;5.65;;;;;;;;;;5014305;28;20137;-70
2021/12/16 06:07:55;;;;;;;17.42;6.90;;;;;;;;;;5010200;28;20413;-70
2021/12/16 06:11:09;;;;;;;19.70;7.07;;;;;;;;;;5007845;28;20140;-70
2021/12/16 06:13:37;;;;;;;19.83;6.80;;;;;;;;;;5015127;28;20046;-70
2021/12/16 06:27:20;;;;;;;25.25;8.40;;;;;;;;;;5015541;28;20155;-70
2021/12/16 06:29:49;;;;;;;20.73;7.53;;;;;;;;;;5013388;28;20050;-70
2021/12/16 06:32:18;;;;;;;22.63;7.65;;;;;;;;;;5020354;28;20422;-70
2021/12/16 06:34:47;;;;;;;18.27;7.03;;;;;;;;;;5035908;28;20049;-70
2021/12/16 06:37:15;;;;;;;22.00;7.95;;;;;;;;;;5011093;28;20065;-70
2021/12/16 06:39:45;;;;;;;23.92;8.65;;;;;;;;;;5011335;28;20078;-70
2021/12/16 06:42:13;;;;;;;19.40;7.80;;;;;;;;;;5014191;28;20474;-71
2021/12/16 06:44:45;;;;;;;20.80;8.05;;;;;;;;;;5019774;28;20136;-70
2021/12/16 06:47:19;;;;;;;20.08;7.03;;;;;;;;;;5016203;28;20058;-70
2021/12/16 06:49:49;;;;;;;19.80;7.63;;;;;;;;;;5022401;28;20148;-70
2021/12/16 06:52:21;;;;;;;14.70;6.13;;;;;;;;;;5009782;28;20049;-70
2021/12/16 06:55:04;;;;;;;19.42;7.07;;;;;;;;;;5015816;28;20541;-70
2021/12/16 06:57:43;;;;;;;21.48;7.40;;;;;;;;;;5017462;28;20080;-70
2021/12/16 07:00:17;;;;;;;22.67;7.60;;;;;;;;;;5025649;28;20077;-70
2021/12/16 07:02:55;;;;;;;15.18;6.80;;;;;;;;;;5018302;28;20137;-70
2021/12/16 07:05:25;;;;;;;20.80;7.72;;;;;;;;;;5019578;28;20049;-70
2021/12/16 07:07:53;;;;;;;19.00;6.85;;;;;;;;;;5020430;28;20100;-70
2021/12/16 07:10:24;;;;;;;20.55;7.40;;;;;;;;;;5028488;28;20470;-70
2021/12/16 07:12:55;;;;;;;23.52;7.55;;;;;;;;;;5020396;28;20045;-70
2021/12/16 07:15:25;;;;;;;17.65;6.93;;;;;;;;;;5016477;28;20470;-70
2021/12/16 07:17:54;;;;;;;21.15;6.90;;;;;;;;;;5023684;28;20137;-70
2021/12/16 07:20:24;;;;;;;17.85;6.50;;;;;;;;;;5026155;28;20102;-70
2021/12/16 07:22:53;;;;;;;19.33;7.25;;;;;;;;;;5017289;28;20500;-70
2021/12/16 07:25:23;;;;;;;17.80;6.38;;;;;;;;;;5017119;28;20436;-70
2021/12/16 07:27:51;;;;;;;17.60;5.80;;;;;;;;;;5027209;28;20592;-70
2021/12/16 07:30:22;;;;;;;14.57;5.32;;;;;;;;;;5018561;28;20051;-70
2021/12/16 07:32:52;;;;;;;15.40;5.82;;;;;;;;;;5021983;28;20054;-70
2021/12/16 07:35:22;;;;;;;14.95;5.43;;;;;;;;;;5019244;28;20065;-70
2021/12/16 07:37:50;;;;;;;14.65;4.85;;;;;;;;;;5021909;28;20470;-71
2021/12/16 07:40:22;;;;;;;15.95;6.03;;;;;;;;;;5027728;28;20060;-70
2021/12/16 07:43:10;;;;;;;10.13;4.45;;;;;;;;;;5030295;28;20049;-70
2021/12/16 07:45:41;;;;;;;12.68;4.47;;;;;;;;;;5015752;28;20137;-71
2021/12/16 07:48:10;;;;;;;14.02;5.15;;;;;;;;;;5006953;28;20179;-70
2021/12/16 07:50:39;;;;;;;13.50;5.15;;;;;;;;;;5005932;28;20573;-70
2021/12/16 07:53:07;;;;;;;13.32;5.50;;;;;;;;;;5021816;28;20413;-70
2021/12/16 07:55:36;;;;;;;15.00;5.32;;;;;;;;;;5023242;28;20045;-71
2021/12/16 07:58:06;;;;;;;12.15;5.07;;;;;;;;;;5013368;28;20050;-70
2021/12/16 08:00:35;;;;;;;12.73;4.72;;;;;;;;;;5014235;28;20103;-70
2021/12/16 08:03:04;;;;;;;10.38;3.90;;;;;;;;;;5017920;28;20462;-71
2021/12/16 08:05:35;;;;;;;12.85;4.25;;;;;;;;;;5010792;28;20049;-71
2021/12/16 08:08:05;;;;;;;10.90;3.95;;;;;;;;;;5022652;28;20132;-71
2021/12/16 08:10:34;;;;;;;11.05;4.28;;;;;;;;;;5015671;28;20081;-71
2021/12/16 08:13:03;;;;;;;13.77;4.75;;;;;;;;;;5011867;28;20485;-71
2021/12/16 08:15:32;;;;;;;15.50;4.53;;;;;;;;;;5024985;28;20148;-71
2021/12/16 08:18:01;;;;;;;12.10;4.53;;;;;;;;;;5015340;28;20049;-71
2021/12/16 08:20:30;;;;;;;11.75;4.13;;;;;;;;;;5019593;28;20052;-70
2021/12/16 08:22:58;;;;;;;12.35;4.07;;;;;;;;;;5030056;28;20136;-71
2021/12/16 08:25:29;;;;;;;15.18;4.63;;;;;;;;;;5013184;28;20143;-71
2021/12/16 08:27:58;;;;;;;11.55;4.10;;;;;;;;;;5014467;28;20053;-71
2021/12/16 08:30:29;;;;;;;12.30;4.10;;;;;;;;;;5013186;28;20470;-70
2021/12/16 08:33:04;;;;;;;9.98;4.78;;;;;;;;;;5008554;28;20490;-71
2021/12/16 08:35:33;;;;;;;12.05;4.50;;;;;;;;;;5013280;28;20047;-70
2021/12/16 08:38:03;;;;;;;11.35;3.90;;;;;;;;;;5014535;28;20398;-70
2021/12/16 08:40:31;;;;;;;9.20;3.97;;;;;;;;;;5014604;28;20164;-70
2021/12/16 08:43:00;;;;;;;10.70;3.08;;;;;;;;;;5013841;28;20386;-70
2021/12/16 08:45:29;;;;;;;9.57;3.47;;;;;;;;;;5020850;28;20058;-70
2021/12/16 08:47:58;;;;;;;11.10;3.92;;;;;;;;;;5018346;28;20058;-71
2021/12/16 08:50:29;;;;;;;10.07;4.28;;;;;;;;;;5013600;28;20049;-70
2021/12/16 08:52:59;;;;;;;10.57;3.83;;;;;;;;;;5018817;28;20543;-70
2021/12/16 08:55:28;;;;;;;11.57;4.32;;;;;;;;;;5017995;28;20060;-71
2021/12/16 08:57:57;;;;;;;11.55;4.07;;;;;;;;;;5016434;28;20088;-70
2021/12/16 09:00:28;;;;;;;11.75;4.32;;;;;;;;;;5019473;28;20569;-70
2021/12/16 09:02:57;;;;;;;8.52;3.55;;;;;;;;;;5014389;28;20600;-70
2021/12/16 09:05:28;;;;;;;11.20;3.75;;;;;;;;;;5018954;28;20517;-70
2021/12/16 09:07:57;;;;;;;10.68;4.57;;;;;;;;;;5017629;28;20053;-70
2021/12/16 09:10:29;;;;;;;13.55;3.92;;;;;;;;;;5016403;28;20046;-70
2021/12/16 09:13:03;;;;;;;7.70;3.40;;;;;;;;;;5017559;28;20065;-70
2021/12/16 09:15:33;;;;;;;9.55;3.88;;;;;;;;;;5015160;28;20153;-70
2021/12/16 09:18:03;;;;;;;9.52;4.18;;;;;;;;;;5017221;28;20052;-70
2021/12/16 09:20:33;;;;;;;7.97;3.60;;;;;;;;;;5007165;28;20045;-70
2021/12/16 09:23:03;;;;;;;7.35;3.47;;;;;;;;;;5010274;28;20049;-70
2021/12/16 09:25:32;;;;;;;10.57;3.80;;;;;;;;;;4995195;28;20101;-70
2021/12/16 09:28:02;;;;;;;9.57;3.72;;;;;;;;;;4991708;28;20060;-70
2021/12/16 09:30:31;;;;;;;9.82;3.75;;;;;;;;;;4991563;28;20650;-70
2021/12/16 09:33:01;;;;;;;8.15;3.42;;;;;;;;;;4993385;28;20050;-70
2021/12/16 09:35:32;;;;;;;8.45;3.00;;;;;;;;;;4995593;28;20065;-70
2021/12/16 09:38:04;;;;;;;9.38;3.97;;;;;;;;;;4996721;28;20057;-70
2021/12/16 09:40:35;;;;;;;12.63;3.85;;;;;;;;;;4992823;28;20230;-70
2021/12/16 09:43:05;;;;;;;14.55;4.45;;;;;;;;;;4991555;28;20124;-70
2021/12/16 09:45:52;;;;;;;8.48;4.28;;;;;;;;;;4989819;28;20101;-70
2021/12/16 09:48:21;;;;;;;12.32;4.05;;;;;;;;;;4994447;28;20140;-70
2021/12/16 09:50:51;;;;;;;9.60;4.05;;;;;;;;;;4987722;28;20065;-70
2021/12/16 09:53:22;;;;;;;11.85;4.22;;;;;;;;;;4993294;28;20058;-70
2021/12/16 09:55:58;;;;;;;10.52;4.20;;;;;;;;;;4989117;28;20097;-71
2021/12/16 09:58:29;;;;;;;10.75;4.43;;;;;;;;;;4991748;28;20201;-71
2021/12/16 10:00:58;;;;;;;9.40;3.72;;;;;;;;;;4996540;28;20054;-71
2021/12/16 10:03:27;;;;;;;13.10;4.80;;;;;;;;;;4990115;28;20049;-71
2021/12/16 10:05:57;;;;;;;11.20;4.10;;;;;;;;;;4991032;28;20045;-71
2021/12/16 10:08:28;;;;;;;7.50;3.33;;;;;;;;;;4991751;28;20045;-71
2021/12/16 10:10:58;;;;;;;7.60;3.88;;;;;;;;;;4995295;28;20077;-71
2021/12/16 10:13:40;;;;;;;9.02;3.65;;;;;;;;;;4990898;28;20089;-71
2021/12/16 10:18:55;;;;;;;10.23;3.90;;;;;;;;;;4990552;28;20522;-71
2021/12/16 10:21:25;;;;;;;9.38;4.07;;;;;;;;;;4999471;28;20405;-71
2021/12/16 10:23:55;;;;;;;10.90;4.25;;;;;;;;;;4991195;28;20054;-71
2021/12/16 10:26:25;;;;;;;8.82;4.20;;;;;;;;;;5013816;28;20069;-71
2021/12/16 10:28:56;;;;;;;8.38;3.45;;;;;;;;;;5010229;28;20575;-71
2021/12/16 10:31:26;;;;;;;10.82;3.95;;;;;;;;;;5012281;28;20081;-71
2021/12/16 10:33:57;;;;;;;11.98;4.68;;;;;;;;;;5009565;28;20049;-71
2021/12/16 10:36:27;;;;;;;13.07;4.47;;;;;;;;;;5010138;28;20065;-71
2021/12/16 10:39:00;;;;;;;10.95;4.35;;;;;;;;;;5015669;28;20050;-71
2021/12/16 10:41:31;;;;;;;9.40;4.20;;;;;;;;;;5014185;28;20577;-71
2021/12/16 10:44:04;;;;;;;12.05;4.55;;;;;;;;;;5014310;28;20059;-71
2021/12/16 10:46:35;;;;;;;10.63;4.30;;;;;;;;;;5012401;28;20057;-71
2021/12/16 10:49:06;;;;;;;12.23;4.70;;;;;;;;;;5014413;28;20077;-71
2021/12/16 10:51:35;;;;;;;11.30;4.82;;;;;;;;;;5017010;28;20080;-71
2021/12/16 10:54:13;;;;;;;9.73;4.68;;;;;;;;;;5020690;28;20053;-71
2021/12/16 10:57:00;;;;;;;13.65;5.05;;;;;;;;;;5024630;28;20057;-71
2021/12/16 10:59:30;;;;;;;12.40;5.10;;;;;;;;;;5011839;28;20042;-71
2021/12/16 11:02:01;;;;;;;15.05;5.15;;;;;;;;;;5013154;28;20134;-71
2021/12/16 11:04:32;;;;;;;10.15;4.82;;;;;;;;;;5011592;28;20422;-71
2021/12/16 11:07:03;;;;;;;11.00;4.25;;;;;;;;;;5012398;28;20053;-71
2021/12/16 11:09:47;;;;;;;11.50;4.55;;;;;;;;;;5012357;28;20565;-71
2021/12/16 11:12:21;;;;;;;7.70;3.60;;;;;;;;;;5016229;28;20052;-71
2021/12/16 11:14:50;;;;;;;10.10;4.32;;;;;;;;;;5013345;28;20136;-71
2021/12/16 11:17:20;;;;;;;9.55;4.28;;;;;;;;;;5019963;28;20093;-71
2021/12/16 11:19:51;;;;;;;8.60;3.95;;;;;;;;;;5025986;28;20088;-71
2021/12/16 11:22:23;;;;;;;11.05;3.97;;;;;;;;;;5010984;28;20085;-71
2021/12/16 11:24:54;;;;;;;10.63;4.68;;;;;;;;;;5022523;28;20053;-71
2021/12/16 11:27:28;;;;;;;8.38;3.88;;;;;;;;;;5025655;28;20045;-71
2021/12/16 11:29:57;;;;;;;9.20;4.33;;;;;;;;;;5029423;28;20143;-71
2021/12/16 11:32:41;;;;;;;11.13;4.30;;;;;;;;;;5017506;28;20076;-71
2021/12/16 11:35:26;;;;;;;11.38;4.13;;;;;;;;;;5013133;28;20143;-71
2021/12/16 11:37:55;;;;;;;11.35;4.22;;;;;;;;;;5011587;28;20050;-71
2021/12/16 11:40:26;;;;;;;11.32;4.68;;;;;;;;;;5014528;28;20533;-71
2021/12/16 11:43:02;;;;;;;8.73;3.10;;;;;;;;;;5010294;28;20046;-71
2021/12/16 11:45:37;;;;;;;11.23;4.50;;;;;;;;;;5016922;28;20050;-71
2021/12/16 11:48:07;;;;;;;10.05;4.15;;;;;;;;;;5013815;28;20049;-71
2021/12/16 11:50:37;;;;;;;8.27;3.97;;;;;;;;;;5011264;28;20073;-71
2021/12/16 11:53:06;;;;;;;9.85;4.30;;;;;;;;;;5007797;28;20049;-71
2021/12/16 11:55:38;;;;;;;8.70;3.42;;;;;;;;;;5012660;28;20045;-71
2021/12/16 11:58:07;;;;;;;7.43;3.67;;;;;;;;;;5008296;28;20050;-71
2021/12/16 12:00:38;;;;;;;7.35;3.60;;;;;;;;;;5013113;28;21316;-70
2021/12/16 12:03:08;;;;;;;12.45;4.28;;;;;;;;;;5011218;28;20053;-71
2021/12/16 12:05:37;;;;;;;9.88;4.07;;;;;;;;;;5015148;28;20042;-70
2021/12/16 12:08:08;;;;;;;8.10;3.70;;;;;;;;;;5012089;28;20176;-70
2021/12/16 12:10:41;;;;;;;8.25;3.53;;;;;;;;;;5010110;28;20180;-70
2021/12/16 12:13:11;;;;;;;10.70;4.18;;;;;;;;;;5012025;28;20436;-70
2021/12/16 12:15:56;;;;;;;7.53;3.40;;;;;;;;;;5009218;28;20440;-71
2021/12/16 12:18:32;;;;;;;7.78;3.47;;;;;;;;;;5013601;28;20107;-70
2021/12/16 12:21:15;;;;;;;8.88;4.15;;;;;;;;;;5014163;28;20055;-71
2021/12/16 12:23:44;;;;;;;9.57;3.90;;;;;;;;;;5011828;28;20134;-71
2021/12/16 12:26:16;;;;;;;8.93;4.03;;;;;;;;;;5010479;28;20050;-70
2021/12/16 12:28:45;;;;;;;9.05;3.88;;;;;;;;;;5008879;28;20054;-70
2021/12/16 12:31:14;;;;;;;10.63;4.13;;;;;;;;;;5010712;28;20486;-70
2021/12/16 12:33:43;;;;;;;10.13;3.67;;;;;;;;;;5024876;28;20052;-70
2021/12/16 12:36:13;;;;;;;8.00;3.80;;;;;;;;;;5026407;28;20054;-70
2021/12/16 12:38:42;;;;;;;13.25;3.80;;;;;;;;;;5021602;28;20061;-70
2021/12/16 12:41:10;;;;;;;8.18;3.70;;;;;;;;;;5024623;28;20041;-70
2021/12/16 12:43:40;;;;;;;9.77;4.25;;;;;;;;;;5019228;28;20091;-70
2021/12/16 12:46:12;;;;;;;9.77;4.05;;;;;;;;;;5028359;28;20047;-70
2021/12/16 12:48:41;;;;;;;10.35;3.58;;;;;;;;;;5017090;28;20088;-71
2021/12/16 12:51:11;;;;;;;10.65;3.80;;;;;;;;;;5013601;28;20050;-70
2021/12/16 12:53:47;;;;;;;8.13;3.50;;;;;;;;;;5019864;28;20057;-70
2021/12/16 12:56:18;;;;;;;9.32;3.85;;;;;;;;;;5021391;28;20052;-70
2021/12/16 12:58:58;;;;;;;7.53;3.55;;;;;;;;;;5016254;28;20500;-70
2021/12/16 13:01:37;;;;;;;7.57;3.47;;;;;;;;;;5017105;28;20099;-70
2021/12/16 13:04:08;;;;;;;9.45;3.40;;;;;;;;;;5012541;28;20053;-70
2021/12/16 13:06:55;;;;;;;6.13;3.28;;;;;;;;;;5022492;28;20665;-70
2021/12/16 13:09:34;;;;;;;6.55;3.38;;;;;;;;;;5022479;28;20434;-70
2021/12/16 13:12:06;;;;;;;9.43;3.95;;;;;;;;;;5011884;28;20687;-71
2021/12/16 13:14:46;;;;;;;7.63;3.60;;;;;;;;;;5002747;28;20141;-71
2021/12/16 13:23:19;;;;;;;7.68;3.38;;;;;;;;;;5002137;28;20108;-71
2021/12/16 13:23:31;;;;;;;8.50;3.67;;;;;;;;;;5017177;28;20037;-70
2021/12/16 13:26:33;;;;;;;7.82;3.70;;;;;;;;;;5001979;28;20107;-70
2021/12/16 13:29:08;;;;;;;8.68;3.30;;;;;;;;;;5008680;28;21664;-70
2021/12/16 13:31:47;;;;;;;8.75;3.40;;;;;;;;;;5002994;28;20125;-71
2021/12/16 13:34:26;;;;;;;6.03;3.38;;;;;;;;;;5008775;28;21742;-70
2021/12/16 13:36:57;;;;;;;5.50;2.85;;;;;;;;;;5005791;28;20045;-70
2021/12/16 13:39:29;;;;;;;6.20;2.83;;;;;;;;;;5012070;28;20046;-70
2021/12/16 13:41:59;;;;;;;6.90;3.47;;;;;;;;;;5019980;28;20049;-70
2021/12/16 13:44:48;;;;;;;9.40;3.53;;;;;;;;;;5016462;28;20042;-71
2021/12/16 13:47:30;;;;;;;8.90;3.33;;;;;;;;;;5029302;28;20053;-70
2021/12/16 13:58:48;;;;;;;9.13;4.05;;;;;;;;;;5015158;28;20042;-70
2021/12/16 14:01:32;;;;;;;7.03;3.80;;;;;;;;;;5014383;28;20045;-70
2021/12/16 14:04:23;;;;;;;7.65;3.35;;;;;;;;;;5010330;28;20050;-70
2021/12/16 14:06:57;;;;;;;6.03;3.60;;;;;;;;;;5015256;28;20053;-71
2021/12/16 14:09:31;;;;;;;8.30;3.43;;;;;;;;;;5009437;28;20064;-71
2021/12/16 14:15:09;;;;;;;11.13;4.00;;;;;;;;;;5014023;28;20049;-71
2021/12/16 14:17:48;;;;;;;8.05;3.58;;;;;;;;;;5021618;28;20796;-71
2021/12/16 14:23:12;;;;;;;8.73;4.05;;;;;;;;;;5004281;28;20049;-71
2021/12/16 14:26:05;;;;;;;9.27;3.90;;;;;;;;;;5022792;28;20064;-70
2021/12/16 14:43:01;;;;;;;8.52;3.95;;;;;;;;;;4964145;28;20137;-71
2021/12/16 14:45:37;;;;;;;7.95;4.07;;;;;;;;;;5018522;28;20057;-70
2021/12/16 14:48:21;;;;;;;7.70;3.33;;;;;;;;;;5026544;28;20445;-70
2021/12/16 14:50:53;;;;;;;11.57;3.97;;;;;;;;;;5018332;28;20056;-70
2021/12/16 14:53:26;;;;;;;11.55;4.50;;;;;;;;;;5025743;28;20505;-70
2021/12/16 14:55:58;;;;;;;7.63;3.83;;;;;;;;;;5017825;28;20501;-70
2021/12/16 14:58:27;;;;;;;10.23;3.70;;;;;;;;;;5013877;28;20056;-70
2021/12/16 15:00:57;;;;;;;10.68;4.28;;;;;;;;;;5014803;28;20107;-70
2021/12/16 15:03:28;;;;;;;7.70;3.58;;;;;;;;;;5015119;28;20129;-70
2021/12/16 15:05:58;;;;;;;9.50;4.10;;;;;;;;;;5015097;28;20045;-70
2021/12/16 15:08:34;;;;;;;10.55;4.03;;;;;;;;;;5011034;28;20096;-68
2021/12/16 15:11:07;;;;;;;7.20;3.70;;;;;;;;;;5024254;28;20053;-68
2021/12/16 15:13:41;;;;;;;8.55;4.22;;;;;;;;;;5032193;28;20073;-68
2021/12/16 15:39:08;;;;;;;10.75;3.97;;;;;;;;;;5026419;28;20157;-69
2021/12/16 15:44:24;;;;;;;12.07;4.03;;;;;;;;;;5033854;28;20481;-69
2021/12/16 15:46:53;;;;;;;8.68;4.10;;;;;;;;;;5024421;28;20049;-69
2021/12/16 15:49:23;;;;;;;9.18;4.05;;;;;;;;;;5026554;28;20049;-69
2021/12/16 15:51:52;;;;;;;8.90;4.15;;;;;;;;;;5014876;28;20038;-69
2021/12/16 15:54:23;;;;;;;7.28;3.60;;;;;;;;;;5019787;28;20049;-69
2021/12/16 15:56:53;;;;;;;12.27;3.40;;;;;;;;;;5026455;28;20701;-68
2021/12/16 15:59:28;;;;;;;10.32;4.78;;;;;;;;;;5018166;28;20050;-69
2021/12/16 16:01:58;;;;;;;8.23;3.58;;;;;;;;;;5015572;28;20528;-69
2021/12/16 16:04:27;;;;;;;9.02;3.78;;;;;;;;;;5032581;28;20056;-69
2021/12/16 16:06:58;;;;;;;12.45;4.30;;;;;;;;;;5024338;28;20045;-69
2021/12/16 16:09:26;;;;;;;10.25;3.88;;;;;;;;;;5020232;28;20132;-69
2021/12/16 16:11:57;;;;;;;9.02;4.63;;;;;;;;;;5023746;28;20061;-69
2021/12/16 16:14:29;;;;;;;9.48;3.80;;;;;;;;;;5028153;28;20081;-69
2021/12/16 16:16:59;;;;;;;7.97;3.90;;;;;;;;;;5015616;28;20050;-69
2021/12/16 16:19:29;;;;;;;9.55;4.18;;;;;;;;;;5020916;28;20050;-69
2021/12/16 16:22:00;;;;;;;8.85;4.25;;;;;;;;;;5026342;28;20041;-69
2021/12/16 16:24:32;;;;;;;8.70;4.40;;;;;;;;;;5018805;28;20054;-69
2021/12/16 16:27:04;;;;;;;8.55;4.00;;;;;;;;;;5014597;28;20050;-69
2021/12/16 16:29:35;;;;;;;9.27;4.22;;;;;;;;;;5010371;28;20057;-69
2021/12/16 16:32:04;;;;;;;8.55;4.00;;;;;;;;;;5016232;28;20099;-69
2021/12/16 16:34:34;;;;;;;7.55;3.65;;;;;;;;;;5023070;28;20059;-69
2021/12/16 16:37:04;;;;;;;7.68;3.65;;;;;;;;;;5020674;28;20050;-69
2021/12/16 16:39:35;;;;;;;14.43;5.32;;;;;;;;;;5013108;28;20052;-69
2021/12/16 16:42:06;;;;;;;8.13;4.20;;;;;;;;;;5018493;28;20556;-69
2021/12/16 16:44:35;;;;;;;11.30;5.13;;;;;;;;;;5010255;28;20454;-69
2021/12/16 16:47:09;;;;;;;10.93;4.72;;;;;;;;;;5008944;28;20054;-69
2021/12/16 16:49:46;;;;;;;9.52;5.00;;;;;;;;;;5031407;28;20444;-69
2021/12/16 16:52:17;;;;;;;10.32;4.57;;;;;;;;;;5015090;28;20081;-69
2021/12/16 16:54:48;;;;;;;8.07;4.22;;;;;;;;;;5023082;28;20119;-69
2021/12/16 16:57:19;;;;;;;16.35;4.90;;;;;;;;;;5017308;28;20420;-69
2021/12/16 16:59:50;;;;;;;8.55;4.47;;;;;;;;;;5019138;28;20575;-69
2021/12/16 17:02:23;;;;;;;9.93;4.85;;;;;;;;;;5020667;28;20486;-69
2021/12/16 17:04:54;;;;;;;10.48;4.68;;;;;;;;;;5017061;28;21965;-69
2021/12/16 17:07:23;;;;;;;10.65;4.35;;;;;;;;;;5021246;28;20052;-69
2021/12/16 17:09:52;;;;;;;10.80;4.75;;;;;;;;;;5023553;28;20087;-69
2021/12/16 17:12:22;;;;;;;10.50;4.95;;;;;;;;;;5015232;28;20132;-69
2021/12/16 17:14:56;;;;;;;17.15;5.18;;;;;;;;;;5012057;28;20049;-69
2021/12/16 17:17:26;;;;;;;11.63;4.47;;;;;;;;;;5021854;28;20124;-69
2021/12/16 17:19:59;;;;;;;12.02;5.05;;;;;;;;;;5018920;28;20071;-69
2021/12/16 17:22:31;;;;;;;11.93;5.70;;;;;;;;;;5016169;28;20474;-69
2021/12/16 17:25:00;;;;;;;14.00;5.10;;;;;;;;;;5014331;28;20085;-69
2021/12/16 17:27:34;;;;;;;9.93;4.43;;;;;;;;;;5024885;28;20054;-69
2021/12/16 17:30:06;;;;;;;12.67;5.30;;;;;;;;;;5012685;28;20538;-69
2021/12/16 17:32:35;;;;;;;9.80;4.75;;;;;;;;;;5019048;28;20679;-69
2021/12/16 17:35:06;;;;;;;10.65;4.65;;;;;;;;;;5023951;28;20045;-69
2021/12/16 17:37:36;;;;;;;9.55;4.40;;;;;;;;;;5024553;28;20501;-68
2021/12/16 17:40:09;;;;;;;8.57;4.38;;;;;;;;;;5023830;28;20405;-69